createdAt,value
2023-01-29T00:01:35.808Z,99658.00
2023-01-29T00:04:28.101Z,99656.10
2023-01-29T00:07:20.538Z,99666.83
2023-01-29T00:10:15.060Z,99658.74
2023-01-29T00:13:07.305Z,99659.48
2023-01-29T00:16:00.096Z,99663.24
2023-01-29T00:18:52.441Z,99663.17
2023-01-29T00:21:44.550Z,99668.88
2023-01-29T00:24:25.583Z,99670.19
2023-01-29T00:27:17.572Z,99673.42
2023-01-29T00:30:08.599Z,99667.89
2023-01-29T00:32:46.164Z,99669.21
2023-01-29T00:35:40.409Z,99671.40
2023-01-29T00:38:32.781Z,99675.23
2023-01-29T00:41:31.888Z,99682.15
2023-01-29T00:44:42.307Z,99679.58
2023-01-29T00:47:34.512Z,99676.98
2023-01-29T00:50:26.747Z,99683.66
2023-01-29T00:53:19.008Z,99677.61
2023-01-29T00:56:11.110Z,99679.47
2023-01-29T00:59:03.235Z,99677.52
2023-01-29T01:02:13.144Z,99691.83
2023-01-29T01:05:07.724Z,99692.20
2023-01-29T01:08:00.570Z,99692.56
2023-01-29T01:11:03.254Z,99695.41
2023-01-29T01:14:02.174Z,99697.80
2023-01-29T01:16:54.298Z,99694.27
2023-01-29T01:19:46.479Z,99689.19
2023-01-29T01:22:38.621Z,99687.30
2023-01-29T01:25:30.740Z,99684.17
2023-01-29T01:28:22.855Z,99685.27
2023-01-29T01:31:16.455Z,99683.50
2023-01-29T01:34:08.555Z,99678.05
2023-01-29T01:37:00.741Z,99671.17
2023-01-29T01:39:57.918Z,99681.08
2023-01-29T01:42:52.589Z,99681.30
2023-01-29T01:45:37.638Z,99672.37
2023-01-29T01:48:29.981Z,99668.52
2023-01-29T01:51:25.139Z,99671.67
2023-01-29T01:54:24.860Z,99668.95
2023-01-29T01:57:18.236Z,99664.41
2023-01-29T02:00:16.665Z,99658.70
2023-01-29T02:03:28.726Z,99645.04
2023-01-29T02:06:38.487Z,99641.34
2023-01-29T02:09:36.867Z,99644.10
2023-01-29T02:12:31.612Z,99653.52
2023-01-29T02:15:08.424Z,99658.25
2023-01-29T02:18:00.819Z,99657.18
2023-01-29T02:21:09.135Z,99649.55
2023-01-29T02:24:53.725Z,99649.78
2023-01-29T02:28:10.696Z,99644.48
2023-01-29T02:31:10.386Z,99641.20
2023-01-29T02:34:27.270Z,99637.80
2023-01-29T02:37:20.072Z,99637.06
2023-01-29T02:40:23.674Z,99638.73
2023-01-29T02:43:28.854Z,99637.12
2023-01-29T02:46:27.103Z,99646.78
2023-01-29T02:49:24.526Z,99650.90
2023-01-29T02:52:21.008Z,99652.32
2023-01-29T02:55:19.309Z,99659.58
2023-01-29T02:58:18.726Z,99664.58
2023-01-29T03:01:16.711Z,99669.90
2023-01-29T03:04:12.231Z,99666.19
2023-01-29T03:07:10.103Z,99660.90
2023-01-29T03:10:04.420Z,99656.10
2023-01-29T03:13:01.609Z,99658.43
2023-01-29T03:16:01.556Z,99663.98
2023-01-29T03:18:58.223Z,99673.05
2023-01-29T03:21:59.367Z,99676.00
2023-01-29T03:25:14.089Z,99683.98
2023-01-29T03:28:23.030Z,99683.44
2023-01-29T03:31:35.218Z,99682.38
2023-01-29T03:34:38.849Z,99681.30
2023-01-29T03:37:35.610Z,99676.38
2023-01-29T03:40:29.307Z,99671.94
2023-01-29T03:43:32.360Z,99670.73
2023-01-29T03:46:31.370Z,99670.40
2023-01-29T03:49:33.315Z,99669.14
2023-01-29T03:52:32.228Z,99661.62
2023-01-29T03:55:35.192Z,99655.04
2023-01-29T03:58:36.623Z,99655.50
2023-01-29T04:01:34.200Z,99649.80
2023-01-29T04:04:28.737Z,99648.14
2023-01-29T04:07:24.630Z,99651.46
2023-01-29T04:10:20.540Z,99650.08
2023-01-29T04:13:15.409Z,99659.45
2023-01-29T04:16:12.842Z,99655.30
2023-01-29T04:19:06.180Z,99654.52
2023-01-29T04:22:06.961Z,99652.92
2023-01-29T04:25:08.373Z,99641.33
2023-01-29T04:28:12.205Z,99637.84
2023-01-29T04:31:13.727Z,99630.79
2023-01-29T04:34:30.019Z,99623.71
2023-01-29T04:37:31.412Z,99616.12
2023-01-29T04:40:32.149Z,99610.89
2023-01-29T04:43:31.999Z,99607.41
2023-01-29T04:46:33.023Z,99605.80
2023-01-29T04:49:19.675Z,99596.77
2023-01-29T04:52:18.268Z,99589.18
2023-01-29T04:55:32.005Z,99591.16
2023-01-29T04:58:32.989Z,99586.05
2023-01-29T05:01:29.736Z,99586.11
2023-01-29T05:04:24.675Z,99586.41
2023-01-29T05:07:18.444Z,99593.45
2023-01-29T05:10:12.952Z,99593.88
2023-01-29T05:13:09.754Z,99594.64
2023-01-29T05:16:07.204Z,99596.62
2023-01-29T05:18:59.583Z,99597.44
2023-01-29T05:21:52.489Z,99602.36
2023-01-29T05:24:44.500Z,99604.31
2023-01-29T05:27:49.505Z,99609.09
2023-01-29T05:30:42.384Z,99610.94
2023-01-29T05:33:34.595Z,99610.30
2023-01-29T05:36:27.204Z,99612.02
2023-01-29T05:39:19.575Z,99605.23
2023-01-29T05:42:11.695Z,99601.52
2023-01-29T05:45:03.836Z,99602.48
2023-01-29T05:47:58.986Z,99603.95
2023-01-29T05:50:51.189Z,99606.98
2023-01-29T05:53:43.256Z,99610.34
2023-01-29T05:56:35.447Z,99612.13
2023-01-29T05:59:27.539Z,99611.96
2023-01-29T06:02:19.654Z,99609.08
2023-01-29T06:05:12.278Z,99611.91
2023-01-29T06:08:04.578Z,99616.30
2023-01-29T06:10:56.739Z,99617.54
2023-01-29T06:13:48.884Z,99614.83
2023-01-29T06:16:40.934Z,99613.30
2023-01-29T06:19:33.005Z,99619.98
2023-01-29T06:22:25.090Z,99614.61
2023-01-29T06:25:17.436Z,99622.21
2023-01-29T06:28:09.565Z,99620.23
2023-01-29T06:31:19.932Z,99628.39
2023-01-29T06:34:15.199Z,99623.46
2023-01-29T06:37:07.873Z,99626.91
2023-01-29T06:39:59.915Z,99623.95
2023-01-29T06:42:51.998Z,99620.04
2023-01-29T06:45:50.790Z,99613.34
2023-01-29T06:48:42.985Z,99607.96
2023-01-29T06:51:35.244Z,99609.61
2023-01-29T06:54:27.314Z,99613.63
2023-01-29T06:57:19.343Z,99614.48
2023-01-29T07:00:14.705Z,99615.63
2023-01-29T07:03:07.412Z,99618.42
2023-01-29T07:05:59.661Z,99620.95
2023-01-29T07:08:51.718Z,99621.08
2023-01-29T07:11:43.802Z,99628.92
2023-01-29T07:14:35.867Z,99628.18
2023-01-29T07:17:28.036Z,99625.71
2023-01-29T07:20:21.244Z,99630.56
2023-01-29T07:23:15.097Z,99636.14
2023-01-29T07:26:08.316Z,99636.33
2023-01-29T07:29:00.413Z,99635.06
2023-01-29T07:31:52.614Z,99641.15
2023-01-29T07:34:44.743Z,99637.83
2023-01-29T07:37:36.853Z,99635.30
2023-01-29T07:40:29.053Z,99640.79
2023-01-29T07:43:21.329Z,99645.84
2023-01-29T07:46:13.546Z,99637.82
2023-01-29T07:49:05.680Z,99640.34
2023-01-29T07:51:57.819Z,99645.29
2023-01-29T07:54:49.932Z,99649.73
2023-01-29T07:57:42.089Z,99652.28
2023-01-29T08:00:18.577Z,99664.91
2023-01-29T08:02:50.811Z,99667.33
2023-01-29T08:05:42.954Z,99672.06
2023-01-29T08:08:34.811Z,99673.13
2023-01-29T08:11:26.986Z,99676.86
2023-01-29T08:14:19.307Z,99681.11
2023-01-29T08:17:11.384Z,99681.13
2023-01-29T08:20:03.504Z,99684.80
2023-01-29T08:23:03.215Z,99675.60
2023-01-29T08:25:55.338Z,99680.27
2023-01-29T08:28:47.438Z,99680.44
2023-01-29T08:31:39.907Z,99674.66
2023-01-29T08:34:32.072Z,99681.98
2023-01-29T08:37:24.233Z,99688.59
2023-01-29T08:40:17.106Z,99692.30
2023-01-29T08:43:12.837Z,99694.11
2023-01-29T08:46:06.500Z,99693.05
2023-01-29T08:48:58.704Z,99695.42
2023-01-29T08:51:30.702Z,99693.27
2023-01-29T08:54:22.886Z,99697.17
2023-01-29T08:57:15.053Z,99690.08
2023-01-29T09:00:10.434Z,99689.48
2023-01-29T09:03:03.757Z,99688.56
2023-01-29T09:05:55.850Z,99680.63
2023-01-29T09:08:36.844Z,99664.36
2023-01-29T09:11:29.084Z,99656.48
2023-01-29T09:14:21.175Z,99649.36
2023-01-29T09:17:09.801Z,99638.38
2023-01-29T09:20:01.872Z,99634.56
2023-01-29T09:22:56.647Z,99640.67
2023-01-29T09:25:48.919Z,99636.58
2023-01-29T09:28:41.030Z,99643.50
2023-01-29T09:31:33.287Z,99650.14
2023-01-29T09:34:25.471Z,99649.45
2023-01-29T09:37:17.730Z,99645.29
2023-01-29T09:40:25.802Z,99652.11
2023-01-29T09:43:22.616Z,99653.91
2023-01-29T09:46:22.023Z,99654.19
2023-01-29T09:49:22.226Z,99657.92
2023-01-29T09:52:19.807Z,99652.99
2023-01-29T09:55:23.579Z,99647.84
2023-01-29T09:58:21.047Z,99649.33
2023-01-29T10:01:20.234Z,99648.15
2023-01-29T10:04:30.285Z,99647.50
2023-01-29T10:07:38.100Z,99628.81
2023-01-29T10:10:40.732Z,99614.48
2023-01-29T10:13:33.833Z,99606.64
2023-01-29T10:16:45.819Z,99604.41
2023-01-29T10:19:50.374Z,99609.62
2023-01-29T10:23:01.478Z,99605.10
2023-01-29T10:25:54.603Z,99591.50
2023-01-29T10:28:50.121Z,99583.11
2023-01-29T10:31:43.140Z,99580.43
2023-01-29T10:34:39.569Z,99567.61
2023-01-29T10:37:38.898Z,99563.29
2023-01-29T10:40:39.051Z,99555.56
2023-01-29T10:43:38.064Z,99547.94
2023-01-29T10:46:49.394Z,99541.09
2023-01-29T10:50:00.325Z,99532.53
2023-01-29T10:53:06.239Z,99522.23
2023-01-29T10:56:21.772Z,99515.52
2023-01-29T10:59:30.740Z,99511.81
2023-01-29T11:02:23.207Z,99504.92
2023-01-29T11:05:29.176Z,99504.42
2023-01-29T11:08:24.955Z,99499.65
2023-01-29T11:11:19.155Z,99491.83
2023-01-29T11:14:15.794Z,99480.13
2023-01-29T11:17:15.469Z,99477.14
2023-01-29T11:20:26.408Z,99465.90
2023-01-29T11:23:29.056Z,99459.83
2023-01-29T11:26:24.939Z,99452.20
2023-01-29T11:28:56.957Z,99450.80
2023-01-29T11:31:39.621Z,99452.91
2023-01-29T11:34:32.216Z,99447.84
2023-01-29T11:37:24.398Z,99445.98
2023-01-29T11:40:38.562Z,99446.91
2023-01-29T11:43:34.433Z,99445.20
2023-01-29T11:46:26.642Z,99445.30
2023-01-29T11:49:30.004Z,99455.41
2023-01-29T11:52:25.119Z,99448.20
2023-01-29T11:55:21.874Z,99454.70
2023-01-29T11:57:58.518Z,99454.98
2023-01-29T12:00:53.752Z,99449.95
2023-01-29T12:03:56.070Z,99445.41
2023-01-29T12:06:51.913Z,99444.58
2023-01-29T12:10:04.556Z,99442.55
2023-01-29T12:13:07.488Z,99438.60
2023-01-29T12:16:20.482Z,99436.34
2023-01-29T12:19:36.241Z,99435.42
2023-01-29T12:22:41.228Z,99432.85
2023-01-29T12:25:42.549Z,99426.52
2023-01-29T12:28:29.156Z,99420.19
2023-01-29T12:31:34.260Z,99416.45
2023-01-29T12:34:34.336Z,99414.74
2023-01-29T12:37:33.579Z,99404.85
2023-01-29T12:40:29.539Z,99399.37
2023-01-29T12:43:27.567Z,99406.46
2023-01-29T12:46:27.569Z,99402.11
2023-01-29T12:49:24.779Z,99396.50
2023-01-29T12:52:22.697Z,99392.86
2023-01-29T12:55:21.145Z,99391.56
2023-01-29T12:58:17.974Z,99387.64
2023-01-29T13:01:16.394Z,99385.71
2023-01-29T13:04:16.357Z,99387.64
2023-01-29T13:07:15.211Z,99380.77
2023-01-29T13:10:13.779Z,99389.83
2023-01-29T13:13:13.099Z,99386.02
2023-01-29T13:16:11.328Z,99381.79
2023-01-29T13:19:07.551Z,99377.88
2023-01-29T13:22:05.293Z,99381.88
2023-01-29T13:25:04.684Z,99372.83
2023-01-29T13:27:57.780Z,99368.96
2023-01-29T13:31:10.178Z,99367.90
2023-01-29T13:34:22.651Z,99367.31
2023-01-29T13:37:20.994Z,99368.63
2023-01-29T13:40:24.882Z,99364.64
2023-01-29T13:43:23.521Z,99357.06
2023-01-29T13:46:21.355Z,99349.66
2023-01-29T13:49:39.637Z,99345.07
2023-01-29T13:52:39.904Z,99344.55
2023-01-29T13:55:34.759Z,99337.37
2023-01-29T13:58:38.916Z,99336.26
2023-01-29T14:02:04.011Z,99336.92
2023-01-29T14:05:34.004Z,99333.59
2023-01-29T14:08:45.201Z,99338.95
2023-01-29T14:11:38.407Z,99333.32
2023-01-29T14:15:04.301Z,99339.29
2023-01-29T14:18:07.355Z,99333.34
2023-01-29T14:21:05.164Z,99333.87
2023-01-29T14:23:59.505Z,99333.47
2023-01-29T14:26:55.339Z,99332.34
2023-01-29T14:29:47.578Z,99329.02
2023-01-29T14:32:41.561Z,99324.30
2023-01-29T14:35:34.398Z,99336.70
2023-01-29T14:38:29.628Z,99333.92
2023-01-29T14:41:31.098Z,99336.08
2023-01-29T14:44:57.895Z,99337.45
2023-01-29T14:48:20.474Z,99343.80
2023-01-29T14:51:15.368Z,99339.51
2023-01-29T14:54:18.465Z,99336.29
2023-01-29T14:57:15.518Z,99335.77
2023-01-29T14:59:55.809Z,99338.35
2023-01-29T15:02:56.416Z,99333.84
2023-01-29T15:05:51.831Z,99331.85
2023-01-29T15:08:50.688Z,99331.56
2023-01-29T15:11:53.693Z,99333.66
2023-01-29T15:14:53.741Z,99335.75
2023-01-29T15:17:56.072Z,99328.59
2023-01-29T15:20:48.477Z,99331.12
2023-01-29T15:23:41.798Z,99336.92
2023-01-29T15:26:34.723Z,99334.30
2023-01-29T15:29:29.133Z,99332.17
2023-01-29T15:32:33.424Z,99326.39
2023-01-29T15:35:31.358Z,99330.16
2023-01-29T15:38:26.514Z,99330.43
2023-01-29T15:41:23.763Z,99322.23
2023-01-29T15:44:18.680Z,99323.59
2023-01-29T15:47:13.338Z,99322.16
2023-01-29T15:49:50.120Z,99308.08
2023-01-29T15:52:42.371Z,99303.73
2023-01-29T15:55:35.103Z,99307.42
2023-01-29T15:58:32.146Z,99300.46
2023-01-29T16:01:27.073Z,99290.41
2023-01-29T16:04:23.055Z,99301.03
2023-01-29T16:07:15.396Z,99299.81
2023-01-29T16:09:50.962Z,99294.29
2023-01-29T16:12:43.688Z,99299.54
2023-01-29T16:15:37.951Z,99298.73
2023-01-29T16:18:36.241Z,99287.38
2023-01-29T16:21:32.977Z,99288.91
2023-01-29T16:24:25.898Z,99281.70
2023-01-29T16:27:18.111Z,99279.94
2023-01-29T16:30:14.669Z,99277.38
2023-01-29T16:33:12.453Z,99274.64
2023-01-29T16:36:11.731Z,99278.52
2023-01-29T16:39:00.107Z,99285.42
2023-01-29T16:42:22.829Z,99284.58
2023-01-29T16:45:29.729Z,99288.66
2023-01-29T16:48:32.368Z,99279.88
2023-01-29T16:51:30.332Z,99280.91
2023-01-29T16:54:25.723Z,99283.17
2023-01-29T16:57:20.518Z,99287.51
2023-01-29T16:59:58.563Z,99286.50
2023-01-29T17:02:37.758Z,99286.80
2023-01-29T17:05:33.475Z,99283.65
2023-01-29T17:08:30.663Z,99286.13
2023-01-29T17:11:32.895Z,99285.88
2023-01-29T17:14:27.081Z,99285.23
2023-01-29T17:17:19.654Z,99279.52
2023-01-29T17:19:54.485Z,99269.52
2023-01-29T17:22:46.977Z,99266.30
2023-01-29T17:25:39.400Z,99267.48
2023-01-29T17:28:31.675Z,99265.67
2023-01-29T17:31:23.863Z,99266.42
2023-01-29T17:34:18.699Z,99262.58
2023-01-29T17:37:16.054Z,99260.89
2023-01-29T17:40:19.242Z,99253.55
2023-01-29T17:43:11.843Z,99253.30
2023-01-29T17:46:04.013Z,99251.77
2023-01-29T17:48:56.192Z,99244.54
2023-01-29T17:51:49.202Z,99235.52
2023-01-29T17:54:41.372Z,99229.41
2023-01-29T17:57:23.762Z,99236.05
2023-01-29T18:00:20.432Z,99227.39
2023-01-29T18:03:12.538Z,99237.05
2023-01-29T18:06:07.689Z,99238.25
2023-01-29T18:08:59.915Z,99244.10
2023-01-29T18:11:53.339Z,99239.30
2023-01-29T18:14:45.410Z,99235.08
2023-01-29T18:17:37.561Z,99232.25
2023-01-29T18:20:30.344Z,99234.16
2023-01-29T18:23:22.908Z,99229.02
2023-01-29T18:26:18.213Z,99229.45
2023-01-29T18:29:10.394Z,99221.65
2023-01-29T18:32:02.753Z,99222.48
2023-01-29T18:34:55.059Z,99232.23
2023-01-29T18:37:47.540Z,99224.95
2023-01-29T18:40:39.686Z,99218.84
2023-01-29T18:43:32.134Z,99224.52
2023-01-29T18:46:24.969Z,99224.92
2023-01-29T18:49:17.649Z,99223.29
2023-01-29T18:51:58.449Z,99214.71
2023-01-29T18:54:50.794Z,99214.27
2023-01-29T18:58:26.997Z,99211.55
2023-01-29T19:00:55.191Z,99209.77
2023-01-29T19:03:29.697Z,99212.88
2023-01-29T19:06:22.014Z,99207.70
2023-01-29T19:09:14.103Z,99205.45
2023-01-29T19:12:07.321Z,99201.21
2023-01-29T19:14:46.196Z,99197.29
2023-01-29T19:17:38.567Z,99195.89
2023-01-29T19:20:31.061Z,99194.22
2023-01-29T19:23:23.642Z,99187.77
2023-01-29T19:26:15.872Z,99190.58
2023-01-29T19:29:09.556Z,99188.23
2023-01-29T19:32:02.000Z,99190.20
2023-01-29T19:34:54.675Z,99193.44
2023-01-29T19:37:46.966Z,99189.89
2023-01-29T19:40:39.842Z,99187.92
2023-01-29T19:43:32.944Z,99184.70
2023-01-29T19:46:25.188Z,99186.48
2023-01-29T19:49:17.333Z,99184.67
2023-01-29T19:52:15.029Z,99181.52
2023-01-29T19:55:09.293Z,99176.75
2023-01-29T19:58:03.639Z,99178.20
2023-01-29T20:01:00.138Z,99174.63
2023-01-29T20:03:52.611Z,99170.95
2023-01-29T20:06:44.954Z,99171.23
2023-01-29T20:09:37.265Z,99169.70
2023-01-29T20:12:30.075Z,99169.02
2023-01-29T20:15:22.727Z,99167.73
2023-01-29T20:18:15.712Z,99169.55
2023-01-29T20:21:12.389Z,99175.20
2023-01-29T20:24:05.578Z,99168.30
2023-01-29T20:26:57.727Z,99167.98
2023-01-29T20:29:51.861Z,99160.75
2023-01-29T20:32:32.888Z,99164.77
2023-01-29T20:35:25.037Z,99165.84
2023-01-29T20:38:17.075Z,99162.14
2023-01-29T20:41:13.439Z,99161.00
2023-01-29T20:44:05.817Z,99161.24
2023-01-29T20:46:48.872Z,99160.00
2023-01-29T20:49:41.050Z,99154.04
2023-01-29T20:52:33.458Z,99154.85
2023-01-29T20:55:26.009Z,99152.13
2023-01-29T20:58:18.465Z,99149.48
2023-01-29T21:00:58.035Z,99146.54
2023-01-29T21:03:50.383Z,99139.17
2023-01-29T21:06:25.598Z,99141.02
2023-01-29T21:09:17.730Z,99132.96
2023-01-29T21:12:10.075Z,99122.17
2023-01-29T21:15:02.123Z,99118.38
2023-01-29T21:17:54.434Z,99115.38
2023-01-29T21:20:46.728Z,99113.98
2023-01-29T21:23:38.877Z,99105.23
2023-01-29T21:26:31.208Z,99106.68
2023-01-29T21:29:23.380Z,99099.41
2023-01-29T21:32:00.470Z,99095.17
2023-01-29T21:34:52.778Z,99090.08
2023-01-29T21:37:44.878Z,99089.38
2023-01-29T21:40:36.921Z,99090.75
2023-01-29T21:43:29.007Z,99088.48
2023-01-29T21:46:21.110Z,99083.17
2023-01-29T21:49:13.323Z,99080.77
2023-01-29T21:51:54.648Z,99074.29
2023-01-29T21:54:48.728Z,99073.41
2023-01-29T21:57:42.910Z,99067.64
2023-01-29T22:00:35.435Z,99059.77
2023-01-29T22:03:27.458Z,99055.51
2023-01-29T22:06:19.537Z,99054.31
2023-01-29T22:09:11.676Z,99055.51
2023-01-29T22:12:04.372Z,99055.88
2023-01-29T22:14:56.758Z,99044.13
2023-01-29T22:17:48.981Z,99031.52
2023-01-29T22:20:41.097Z,99030.05
2023-01-29T22:23:33.411Z,99024.63
2023-01-29T22:26:25.679Z,99016.65
2023-01-29T22:29:02.583Z,99010.59
2023-01-29T22:31:56.617Z,99005.61
2023-01-29T22:34:48.882Z,98998.33
2023-01-29T22:37:41.024Z,98990.39
2023-01-29T22:40:33.189Z,98987.58
2023-01-29T22:43:26.293Z,98989.52
2023-01-29T22:46:18.469Z,98989.34
2023-01-29T22:49:10.730Z,98987.98
2023-01-29T22:52:11.885Z,98982.89
2023-01-29T22:55:04.009Z,98973.16
2023-01-29T22:57:56.081Z,98962.11
2023-01-29T23:00:52.301Z,98963.33
2023-01-29T23:03:44.474Z,98958.42
2023-01-29T23:06:21.666Z,98952.79
2023-01-29T23:09:13.835Z,98945.33
2023-01-29T23:12:06.859Z,98943.70
2023-01-29T23:14:59.039Z,98940.05
2023-01-29T23:17:51.174Z,98942.89
2023-01-29T23:20:44.153Z,98935.40
2023-01-29T23:23:18.683Z,98926.71
2023-01-29T23:26:26.921Z,98924.05
2023-01-29T23:29:19.054Z,98918.91
2023-01-29T23:32:11.478Z,98910.83
2023-01-29T23:35:03.655Z,98904.56
2023-01-29T23:37:55.782Z,98898.69
2023-01-29T23:40:50.180Z,98888.10
2023-01-29T23:43:42.303Z,98884.72
2023-01-29T23:46:34.517Z,98878.63
2023-01-29T23:49:26.624Z,98871.70
2023-01-29T23:52:18.676Z,98868.23
2023-01-29T23:55:11.476Z,98863.58
2023-01-29T23:57:43.653Z,98856.67
